createdAt,value
2023-01-15T00:00:00.637Z,1.4
2023-01-15T00:01:01.745Z,1.4
2023-01-15T00:02:00.597Z,1.4
2023-01-15T00:03:00.674Z,1.4
2023-01-15T00:04:01.295Z,1.4
2023-01-15T00:05:00.604Z,1.4
2023-01-15T00:06:01.193Z,1.4
2023-01-15T00:07:00.606Z,1.4
2023-01-15T00:08:00.611Z,1.3
2023-01-15T00:09:00.703Z,1.3
2023-01-15T00:10:00.614Z,1.3
2023-01-15T00:11:04.062Z,1.3
2023-01-15T00:12:00.600Z,1.3
2023-01-15T00:13:00.813Z,1.3
2023-01-15T00:14:00.686Z,1.3
2023-01-15T00:15:00.624Z,1.3
2023-01-15T00:16:02.725Z,1.3
2023-01-15T00:17:00.581Z,1.3
2023-01-15T00:18:00.810Z,1.3
2023-01-15T00:19:01.130Z,1.3
2023-01-15T00:20:00.622Z,1.3
2023-01-15T00:21:01.550Z,1.3
2023-01-15T00:22:00.594Z,1.3
2023-01-15T00:23:00.603Z,1.3
2023-01-15T00:24:00.618Z,1.3
2023-01-15T00:25:00.703Z,1.3
2023-01-15T00:26:00.600Z,1.3
2023-01-15T00:27:00.610Z,1.3
2023-01-15T00:28:01.817Z,1.4
2023-01-15T00:29:00.949Z,1.4
2023-01-15T00:30:00.706Z,1.4
2023-01-15T00:31:00.610Z,1.4
2023-01-15T00:32:03.093Z,1.4
2023-01-15T00:33:00.594Z,1.4
2023-01-15T00:34:00.884Z,1.4
2023-01-15T00:35:00.628Z,1.4
2023-01-15T00:36:00.593Z,1.4
2023-01-15T00:37:00.686Z,1.4
2023-01-15T00:38:00.621Z,1.4
2023-01-15T00:39:00.581Z,1.4
2023-01-15T00:40:00.593Z,1.4
2023-01-15T00:41:00.589Z,1.4
2023-01-15T00:42:01.001Z,1.4
2023-01-15T00:43:00.584Z,1.4
2023-01-15T00:44:00.613Z,1.4
2023-01-15T00:45:00.649Z,1.4
2023-01-15T00:46:01.125Z,1.4
2023-01-15T00:47:00.639Z,1.4
2023-01-15T00:48:00.593Z,1.4
2023-01-15T00:49:00.791Z,1.4
2023-01-15T00:50:00.667Z,1.4
2023-01-15T00:51:00.802Z,1.4
2023-01-15T00:52:00.593Z,1.4
2023-01-15T00:53:00.606Z,1.4
2023-01-15T00:54:00.602Z,1.4
2023-01-15T00:55:00.623Z,1.4
2023-01-15T00:56:00.634Z,1.4
2023-01-15T00:57:00.910Z,1.4
2023-01-15T00:58:00.593Z,1.4
2023-01-15T00:59:01.664Z,1.4
2023-01-15T01:00:00.644Z,1.4
2023-01-15T01:01:00.702Z,1.4
2023-01-15T01:02:00.738Z,1.4
2023-01-15T01:03:00.599Z,1.4
2023-01-15T01:04:00.649Z,1.4
2023-01-15T01:05:00.651Z,1.4
2023-01-15T01:06:01.114Z,1.4
2023-01-15T01:07:00.643Z,1.4
2023-01-15T01:08:00.576Z,1.4
2023-01-15T01:09:00.820Z,1.4
2023-01-15T01:10:00.597Z,1.4
2023-01-15T01:11:01.565Z,1.4
2023-01-15T01:12:00.597Z,1.4
2023-01-15T01:13:00.604Z,1.4
2023-01-15T01:14:00.656Z,1.4
2023-01-15T01:15:00.647Z,1.4
2023-01-15T01:16:01.044Z,1.4
2023-01-15T01:17:00.609Z,1.4
2023-01-15T01:18:00.696Z,1.4
2023-01-15T01:19:02.214Z,1.4
2023-01-15T01:20:00.649Z,1.4
2023-01-15T01:21:03.278Z,1.4
2023-01-15T01:22:00.614Z,1.4
2023-01-15T01:23:00.593Z,1.4
2023-01-15T01:24:00.658Z,1.4
2023-01-15T01:25:00.598Z,1.4
2023-01-15T01:26:00.615Z,1.4
2023-01-15T01:27:00.611Z,1.4
2023-01-15T01:28:00.635Z,1.4
2023-01-15T01:29:00.612Z,1.4
2023-01-15T01:30:00.935Z,1.4
2023-01-15T01:31:03.673Z,1.4
2023-01-15T01:32:00.823Z,1.4
2023-01-15T01:33:00.610Z,1.4
2023-01-15T01:34:00.589Z,1.4
2023-01-15T01:35:00.623Z,1.4
2023-01-15T01:36:00.622Z,1.4
2023-01-15T01:37:00.676Z,1.4
2023-01-15T01:38:00.619Z,1.4
2023-01-15T01:39:01.149Z,1.4
2023-01-15T01:40:00.671Z,1.4
2023-01-15T01:41:00.619Z,1.4
2023-01-15T01:42:00.623Z,1.4
2023-01-15T01:43:00.580Z,1.4
2023-01-15T01:44:03.690Z,1.4
2023-01-15T01:45:03.233Z,1.4
2023-01-15T01:46:00.696Z,1.4
2023-01-15T01:47:01.868Z,1.4
2023-01-15T01:48:03.112Z,1.5
2023-01-15T01:49:03.579Z,1.5
2023-01-15T01:50:03.112Z,1.5
2023-01-15T01:51:01.642Z,1.5
2023-01-15T01:52:02.640Z,1.5
2023-01-15T01:53:04.853Z,1.5
2023-01-15T01:54:01.242Z,1.5
2023-01-15T01:55:01.408Z,1.5
2023-01-15T01:56:00.614Z,1.5
2023-01-15T01:57:01.438Z,1.5
2023-01-15T01:58:02.989Z,1.5
2023-01-15T01:59:01.741Z,1.5
2023-01-15T02:00:01.297Z,1.5
2023-01-15T02:01:01.172Z,1.5
2023-01-15T02:02:00.793Z,1.5
2023-01-15T02:03:01.403Z,1.5
2023-01-15T02:04:01.126Z,1.5
2023-01-15T02:05:01.295Z,1.5
2023-01-15T02:06:01.738Z,1.5
2023-01-15T02:07:01.453Z,1.5
2023-01-15T02:08:00.620Z,1.3
2023-01-15T02:09:00.604Z,1.3
2023-01-15T02:10:00.681Z,1.3
2023-01-15T02:11:00.762Z,1.3
2023-01-15T02:12:05.355Z,1.3
2023-01-15T02:13:10.539Z,1.3
2023-01-15T02:14:07.011Z,1.3
2023-01-15T02:15:06.599Z,1.3
2023-01-15T02:16:05.510Z,1.3
2023-01-15T02:17:00.587Z,1.3
2023-01-15T02:18:08.876Z,1.3
2023-01-15T02:19:03.857Z,1.3
2023-01-15T02:20:01.599Z,1.3
2023-01-15T02:21:04.337Z,1.3
2023-01-15T02:22:10.525Z,1.3
2023-01-15T02:23:10.555Z,1.3
2023-01-15T02:24:10.597Z,1.3
2023-01-15T02:25:10.580Z,1.3
2023-01-15T02:26:01.633Z,1.3
2023-01-15T02:27:10.555Z,1.7
2023-01-15T02:28:07.585Z,1.7
2023-01-15T02:29:01.867Z,1.7
2023-01-15T02:30:05.721Z,1.7
2023-01-15T02:31:01.636Z,1.7
2023-01-15T02:32:05.939Z,1.7
2023-01-15T02:33:03.841Z,1.7
2023-01-15T02:34:03.924Z,1.7
2023-01-15T02:35:03.440Z,1.7
2023-01-15T02:36:00.627Z,1.7
2023-01-15T02:37:05.044Z,1.7
2023-01-15T02:38:04.382Z,1.7
2023-01-15T02:39:02.078Z,1.7
2023-01-15T02:40:01.855Z,1.7
2023-01-15T02:41:02.133Z,1.7
2023-01-15T02:42:02.860Z,1.7
2023-01-15T02:43:00.633Z,1.7
2023-01-15T02:44:02.559Z,1.7
2023-01-15T02:45:02.140Z,1.7
2023-01-15T02:46:02.573Z,1.7
2023-01-15T02:47:03.347Z,1.7
2023-01-15T02:48:04.222Z,1.7
2023-01-15T02:49:02.153Z,1.7
2023-01-15T02:50:03.640Z,1.7
2023-01-15T02:51:05.039Z,1.7
2023-01-15T02:52:05.433Z,1.7
2023-01-15T02:53:02.201Z,1.7
2023-01-15T02:54:03.483Z,1.7
2023-01-15T02:55:04.811Z,1.7
2023-01-15T02:56:04.147Z,1.7
2023-01-15T02:57:02.007Z,1.7
2023-01-15T02:58:03.627Z,1.7
2023-01-15T02:59:04.042Z,1.7
2023-01-15T03:00:02.445Z,1.7
2023-01-15T03:01:03.429Z,1.7
2023-01-15T03:02:02.918Z,1.7
2023-01-15T03:03:05.066Z,1.7
2023-01-15T03:04:03.797Z,1.7
2023-01-15T03:05:07.089Z,1.7
2023-01-15T03:06:07.437Z,1.7
2023-01-15T03:07:04.756Z,1.5
2023-01-15T03:08:01.791Z,1.5
2023-01-15T03:09:00.688Z,1.5
2023-01-15T03:10:01.247Z,1.5
2023-01-15T03:11:08.042Z,1.5
2023-01-15T03:12:09.853Z,1.5
2023-01-15T03:13:01.827Z,1.5
2023-01-15T03:14:04.075Z,1.5
2023-01-15T03:15:05.784Z,1.5
2023-01-15T03:16:03.734Z,1.5
2023-01-15T03:17:04.863Z,1.5
2023-01-15T03:18:03.322Z,1.5
2023-01-15T03:19:06.538Z,1.5
2023-01-15T03:20:05.482Z,1.5
2023-01-15T03:21:04.627Z,1.5
2023-01-15T03:22:03.853Z,1.5
2023-01-15T03:23:05.632Z,1.5
2023-01-15T03:24:01.058Z,1.5
2023-01-15T03:25:01.604Z,1.5
2023-01-15T03:26:00.643Z,1.5
2023-01-15T03:27:01.209Z,1.4
2023-01-15T03:28:02.264Z,1.4
2023-01-15T03:29:01.904Z,1.4
2023-01-15T03:30:05.672Z,1.4
2023-01-15T03:31:00.677Z,1.4
2023-01-15T03:32:00.838Z,1.4
2023-01-15T03:33:00.586Z,1.4
2023-01-15T03:34:01.195Z,1.4
2023-01-15T03:35:00.623Z,1.4
2023-01-15T03:36:00.769Z,1.4
2023-01-15T03:37:00.619Z,1.4
2023-01-15T03:38:00.615Z,1.4
2023-01-15T03:39:00.785Z,1.4
2023-01-15T03:40:00.700Z,1.4
2023-01-15T03:41:10.540Z,1.4
2023-01-15T03:42:06.875Z,1.4
2023-01-15T03:43:03.596Z,1.4
2023-01-15T03:44:00.589Z,1.4
2023-01-15T03:45:09.178Z,1.4
2023-01-15T03:46:03.021Z,1.4
2023-01-15T03:47:10.550Z,1.6
2023-01-15T03:48:04.321Z,1.6
2023-01-15T03:49:09.893Z,1.6
2023-01-15T03:50:07.866Z,1.6
2023-01-15T03:51:06.024Z,1.6
2023-01-15T03:52:03.828Z,1.6
2023-01-15T03:53:08.083Z,1.6
2023-01-15T03:54:02.299Z,1.6
2023-01-15T03:55:10.537Z,1.6
2023-01-15T03:56:01.589Z,1.6
2023-01-15T03:57:10.539Z,1.6
2023-01-15T03:58:06.324Z,1.6
2023-01-15T03:59:03.875Z,1.6
2023-01-15T04:00:06.106Z,1.6
2023-01-15T04:01:02.101Z,1.6
2023-01-15T04:02:02.897Z,1.6
2023-01-15T04:03:01.069Z,1.6
2023-01-15T04:04:01.389Z,1.6
2023-01-15T04:05:01.172Z,1.6
2023-01-15T04:06:01.570Z,1.6
2023-01-15T04:07:01.531Z,1.5
2023-01-15T04:08:01.340Z,1.5
2023-01-15T04:09:02.143Z,1.5
2023-01-15T04:10:00.722Z,1.5
2023-01-15T04:11:01.207Z,1.5
2023-01-15T04:12:00.618Z,1.5
2023-01-15T04:13:00.596Z,1.5
2023-01-15T04:14:00.961Z,1.5
2023-01-15T04:15:00.645Z,1.5
2023-01-15T04:16:01.107Z,1.5
2023-01-15T04:17:00.669Z,1.5
2023-01-15T04:18:00.586Z,1.5
2023-01-15T04:19:00.583Z,1.5
2023-01-15T04:20:00.717Z,1.5
2023-01-15T04:21:00.605Z,1.5
2023-01-15T04:22:00.627Z,1.5
2023-01-15T04:23:00.631Z,1.5
2023-01-15T04:24:00.620Z,1.5
2023-01-15T04:25:01.268Z,1.5
2023-01-15T04:26:00.613Z,1.5
2023-01-15T04:27:00.612Z,2.0
2023-01-15T04:28:00.633Z,2.0
2023-01-15T04:29:00.585Z,2.0
2023-01-15T04:30:00.687Z,2.0
2023-01-15T04:31:00.635Z,2.0
2023-01-15T04:32:00.617Z,2.0
2023-01-15T04:33:00.716Z,2.0
2023-01-15T04:34:01.130Z,2.0
2023-01-15T04:35:00.605Z,2.0
2023-01-15T04:36:01.543Z,2.0
2023-01-15T04:37:00.624Z,2.0
2023-01-15T04:38:00.718Z,2.0
2023-01-15T04:39:01.182Z,2.0
2023-01-15T04:40:00.600Z,2.0
2023-01-15T04:41:01.356Z,2.0
2023-01-15T04:42:00.611Z,2.0
2023-01-15T04:43:00.663Z,2.0
2023-01-15T04:44:00.599Z,2.0
2023-01-15T04:45:00.592Z,2.0
2023-01-15T04:46:00.660Z,2.0
2023-01-15T04:47:00.639Z,1.8
2023-01-15T04:48:00.575Z,1.8
2023-01-15T04:49:00.708Z,1.8
2023-01-15T04:50:00.600Z,1.8
2023-01-15T04:51:02.789Z,1.8
2023-01-15T04:52:00.585Z,1.8
2023-01-15T04:53:00.651Z,1.8
2023-01-15T04:54:01.416Z,1.8
2023-01-15T04:55:00.601Z,1.8
2023-01-15T04:56:01.274Z,1.8
2023-01-15T04:57:00.637Z,1.8
2023-01-15T04:58:00.665Z,1.8
2023-01-15T04:59:00.990Z,1.8
2023-01-15T05:00:00.597Z,1.8
2023-01-15T05:01:00.965Z,1.8
2023-01-15T05:02:05.937Z,1.8
2023-01-15T05:03:00.592Z,1.8
2023-01-15T05:04:00.962Z,1.8
2023-01-15T05:05:00.595Z,1.8
2023-01-15T05:06:00.965Z,1.8
2023-01-15T05:07:01.472Z,1.7
2023-01-15T05:08:00.621Z,1.7
2023-01-15T05:09:01.178Z,1.7
2023-01-15T05:10:00.611Z,1.7
2023-01-15T05:11:01.415Z,1.7
2023-01-15T05:12:00.681Z,1.7
2023-01-15T05:13:00.608Z,1.7
2023-01-15T05:14:00.607Z,1.7
2023-01-15T05:15:00.656Z,1.7
2023-01-15T05:16:08.796Z,1.7
2023-01-15T05:17:00.594Z,1.7
2023-01-15T05:18:00.578Z,1.7
2023-01-15T05:19:01.610Z,1.7
2023-01-15T05:20:00.629Z,1.7
2023-01-15T05:21:00.607Z,1.7
2023-01-15T05:22:00.621Z,1.7
2023-01-15T05:23:00.605Z,1.7
2023-01-15T05:24:01.486Z,1.7
2023-01-15T05:25:00.600Z,1.7
2023-01-15T05:26:02.061Z,1.7
2023-01-15T05:27:00.606Z,1.6
2023-01-15T05:28:00.665Z,1.6
2023-01-15T05:29:01.242Z,1.6
2023-01-15T05:30:00.638Z,1.6
2023-01-15T05:31:08.306Z,1.6
2023-01-15T05:32:00.585Z,1.6
2023-01-15T05:33:00.588Z,1.6
2023-01-15T05:34:01.023Z,1.6
2023-01-15T05:35:00.600Z,1.6
2023-01-15T05:36:02.990Z,1.6
2023-01-15T05:37:00.653Z,1.6
2023-01-15T05:38:00.617Z,1.6
2023-01-15T05:39:00.612Z,1.6
2023-01-15T05:40:00.717Z,1.6
2023-01-15T05:41:05.065Z,1.6
2023-01-15T05:42:00.602Z,1.6
2023-01-15T05:43:00.623Z,1.6
2023-01-15T05:44:02.268Z,1.6
2023-01-15T05:45:00.591Z,1.6
2023-01-15T05:46:01.003Z,1.6
2023-01-15T05:47:01.157Z,1.8
2023-01-15T05:48:00.643Z,1.8
2023-01-15T05:49:01.284Z,1.8
2023-01-15T05:50:00.609Z,1.8
2023-01-15T05:51:00.942Z,1.8
2023-01-15T05:52:01.019Z,1.8
2023-01-15T05:53:00.582Z,1.8
2023-01-15T05:54:01.275Z,1.8
2023-01-15T05:55:00.616Z,1.8
2023-01-15T05:56:01.009Z,1.8
2023-01-15T05:57:01.365Z,1.8
2023-01-15T05:58:00.636Z,1.8
2023-01-15T05:59:00.683Z,1.8
2023-01-15T06:00:00.608Z,1.8
2023-01-15T06:01:05.099Z,1.8
2023-01-15T06:02:00.607Z,1.8
2023-01-15T06:03:00.725Z,1.8
2023-01-15T06:04:01.360Z,1.8
2023-01-15T06:05:00.638Z,1.8
2023-01-15T06:06:00.668Z,1.8
2023-01-15T06:07:00.595Z,1.7
2023-01-15T06:08:01.502Z,1.7
2023-01-15T06:09:00.777Z,1.7
2023-01-15T06:10:00.610Z,1.7
2023-01-15T06:11:00.596Z,1.7
2023-01-15T06:12:00.617Z,1.7
2023-01-15T06:13:00.602Z,1.7
2023-01-15T06:14:00.641Z,1.7
2023-01-15T06:15:00.605Z,1.7
2023-01-15T06:16:01.896Z,1.7
2023-01-15T06:17:00.595Z,1.7
2023-01-15T06:18:00.651Z,1.7
2023-01-15T06:19:01.367Z,1.7
2023-01-15T06:20:00.618Z,1.7
2023-01-15T06:21:02.887Z,1.7
2023-01-15T06:22:00.583Z,1.7
2023-01-15T06:23:00.640Z,1.7
2023-01-15T06:24:00.682Z,1.7
2023-01-15T06:25:00.607Z,1.7
2023-01-15T06:26:01.369Z,1.7
2023-01-15T06:27:00.588Z,1.8
2023-01-15T06:28:00.583Z,1.8
2023-01-15T06:29:00.599Z,1.8
2023-01-15T06:30:00.620Z,1.8
2023-01-15T06:31:03.375Z,1.8
2023-01-15T06:32:00.589Z,1.8
2023-01-15T06:33:00.634Z,1.8
2023-01-15T06:34:00.630Z,1.8
2023-01-15T06:35:00.627Z,1.8
2023-01-15T06:36:02.715Z,1.8
2023-01-15T06:37:00.583Z,1.8
2023-01-15T06:38:00.579Z,1.8
2023-01-15T06:39:00.620Z,1.8
2023-01-15T06:40:00.743Z,1.8
2023-01-15T06:41:01.032Z,1.8
2023-01-15T06:42:00.582Z,1.8
2023-01-15T06:43:00.611Z,1.8
2023-01-15T06:44:00.844Z,1.8
2023-01-15T06:45:00.619Z,1.8
2023-01-15T06:46:00.605Z,1.8
2023-01-15T06:47:07.280Z,1.6
2023-01-15T06:48:00.588Z,1.6
2023-01-15T06:49:00.609Z,1.6
2023-01-15T06:50:00.608Z,1.6
2023-01-15T06:51:00.607Z,1.6
2023-01-15T06:52:01.018Z,1.6
2023-01-15T06:53:00.622Z,1.6
2023-01-15T06:54:00.627Z,1.6
2023-01-15T06:55:00.577Z,1.6
2023-01-15T06:56:00.974Z,1.6
2023-01-15T06:57:00.667Z,1.6
2023-01-15T06:58:02.061Z,1.6
2023-01-15T06:59:00.593Z,1.6
2023-01-15T07:00:00.594Z,1.6
2023-01-15T07:01:05.630Z,1.6
2023-01-15T07:02:00.640Z,1.6
2023-01-15T07:03:00.989Z,1.6
2023-01-15T07:04:00.668Z,1.6
2023-01-15T07:05:00.632Z,1.6
2023-01-15T07:06:04.254Z,2.0
2023-01-15T07:07:00.620Z,2.0
2023-01-15T07:08:00.587Z,2.0
2023-01-15T07:09:00.597Z,2.0
2023-01-15T07:10:00.688Z,2.0
2023-01-15T07:11:01.421Z,2.0
2023-01-15T07:12:00.606Z,2.0
2023-01-15T07:13:00.618Z,2.0
2023-01-15T07:14:00.610Z,2.0
2023-01-15T07:15:00.620Z,2.0
2023-01-15T07:16:01.213Z,2.0
2023-01-15T07:17:00.603Z,2.0
2023-01-15T07:18:00.622Z,2.0
2023-01-15T07:19:00.796Z,2.0
2023-01-15T07:20:00.858Z,2.0
2023-01-15T07:21:00.612Z,2.0
2023-01-15T07:22:00.595Z,2.0
2023-01-15T07:23:00.601Z,2.0
2023-01-15T07:24:00.873Z,2.0
2023-01-15T07:25:00.656Z,2.0
2023-01-15T07:26:00.603Z,1.5
2023-01-15T07:27:00.984Z,1.5
2023-01-15T07:28:00.582Z,1.5
2023-01-15T07:29:00.649Z,1.5
2023-01-15T07:30:00.597Z,1.5
2023-01-15T07:31:00.691Z,1.5
2023-01-15T07:32:00.578Z,1.5
2023-01-15T07:33:00.604Z,1.5
2023-01-15T07:34:00.603Z,1.5
2023-01-15T07:35:00.614Z,1.5
2023-01-15T07:36:02.099Z,1.5
2023-01-15T07:37:00.643Z,1.5
2023-01-15T07:38:00.605Z,1.5
2023-01-15T07:39:02.628Z,1.5
2023-01-15T07:40:00.604Z,1.5
2023-01-15T07:41:00.621Z,1.5
2023-01-15T07:42:00.627Z,1.5
2023-01-15T07:43:00.625Z,1.5
2023-01-15T07:44:00.646Z,1.5
2023-01-15T07:45:00.607Z,1.5
2023-01-15T07:46:00.712Z,1.6
2023-01-15T07:47:00.954Z,1.6
2023-01-15T07:48:00.664Z,1.6
2023-01-15T07:49:00.608Z,1.6
2023-01-15T07:50:00.922Z,1.6
2023-01-15T07:51:00.582Z,1.6
2023-01-15T07:52:00.584Z,1.6
2023-01-15T07:53:00.593Z,1.6
2023-01-15T07:54:00.605Z,1.6
2023-01-15T07:55:00.661Z,1.6
2023-01-15T07:56:00.650Z,1.6
2023-01-15T07:57:00.892Z,1.6
2023-01-15T07:58:01.484Z,1.6
2023-01-15T07:59:00.607Z,1.6
2023-01-15T08:00:00.635Z,1.6
2023-01-15T08:01:00.711Z,1.6
2023-01-15T08:02:00.770Z,1.6
2023-01-15T08:03:00.642Z,1.6
2023-01-15T08:04:00.801Z,1.6
2023-01-15T08:05:00.629Z,1.6
2023-01-15T08:06:00.588Z,1.7
2023-01-15T08:07:01.612Z,1.7
2023-01-15T08:08:00.605Z,1.7
2023-01-15T08:09:00.758Z,1.7
2023-01-15T08:10:00.628Z,1.7
2023-01-15T08:11:01.103Z,1.7
2023-01-15T08:12:01.354Z,1.7
2023-01-15T08:13:00.611Z,1.7
2023-01-15T08:14:00.615Z,1.7
2023-01-15T08:15:00.587Z,1.7
2023-01-15T08:16:00.622Z,1.7
2023-01-15T08:17:00.602Z,1.7
2023-01-15T08:18:00.591Z,1.7
2023-01-15T08:19:00.588Z,1.7
2023-01-15T08:20:01.141Z,1.7
2023-01-15T08:21:00.617Z,1.7
2023-01-15T08:22:00.605Z,1.7
2023-01-15T08:23:00.894Z,1.7
2023-01-15T08:24:00.609Z,1.7
2023-01-15T08:25:00.622Z,1.7
2023-01-15T08:26:00.674Z,2.4
2023-01-15T08:27:00.661Z,2.4
2023-01-15T08:28:00.761Z,2.4
2023-01-15T08:29:00.604Z,2.4
2023-01-15T08:30:00.695Z,2.4
2023-01-15T08:31:00.608Z,2.4
2023-01-15T08:32:03.074Z,2.4
2023-01-15T08:33:01.136Z,2.4
2023-01-15T08:34:00.594Z,2.4
2023-01-15T08:35:00.600Z,2.4
2023-01-15T08:36:00.615Z,2.4
2023-01-15T08:37:00.609Z,2.4
2023-01-15T08:38:07.887Z,2.4
2023-01-15T08:39:00.623Z,2.4
2023-01-15T08:40:00.630Z,2.4
2023-01-15T08:41:00.605Z,2.4
2023-01-15T08:42:00.663Z,2.4
2023-01-15T08:43:01.019Z,2.4
2023-01-15T08:44:00.604Z,2.4
2023-01-15T08:45:00.622Z,2.4
2023-01-15T08:46:01.911Z,1.7
2023-01-15T08:47:00.664Z,1.7
2023-01-15T08:48:00.605Z,1.7
2023-01-15T08:49:00.580Z,1.7
2023-01-15T08:50:00.630Z,1.7
2023-01-15T08:51:08.926Z,1.7
2023-01-15T08:52:00.631Z,1.7
2023-01-15T08:53:00.603Z,1.7
2023-01-15T08:54:00.663Z,1.7
2023-01-15T08:55:00.653Z,1.7
2023-01-15T08:56:00.839Z,1.7
2023-01-15T08:57:00.637Z,1.7
2023-01-15T08:58:00.614Z,1.7
2023-01-15T08:59:04.451Z,1.7
2023-01-15T09:00:00.776Z,1.7
2023-01-15T09:01:03.310Z,1.7
2023-01-15T09:02:00.708Z,1.7
2023-01-15T09:03:00.587Z,1.7
2023-01-15T09:04:00.672Z,1.7
2023-01-15T09:05:00.697Z,1.7
2023-01-15T09:06:01.241Z,1.9
2023-01-15T09:07:00.724Z,1.9
2023-01-15T09:08:00.594Z,1.9
2023-01-15T09:09:00.648Z,1.9
2023-01-15T09:10:00.584Z,1.9
2023-01-15T09:11:01.696Z,1.9
2023-01-15T09:12:00.644Z,1.9
2023-01-15T09:13:01.485Z,1.9
2023-01-15T09:14:00.697Z,1.9
2023-01-15T09:15:03.228Z,1.9
2023-01-15T09:16:01.083Z,1.9
2023-01-15T09:17:00.623Z,1.9
2023-01-15T09:18:00.636Z,1.9
2023-01-15T09:19:00.701Z,1.9
2023-01-15T09:20:00.617Z,1.9
2023-01-15T09:21:00.604Z,1.9
2023-01-15T09:22:00.583Z,1.9
2023-01-15T09:23:00.671Z,1.9
2023-01-15T09:24:00.600Z,1.9
2023-01-15T09:25:00.625Z,1.9
2023-01-15T09:26:01.680Z,2.0
2023-01-15T09:27:00.584Z,2.0
2023-01-15T09:28:00.674Z,2.0
2023-01-15T09:29:01.214Z,2.0
2023-01-15T09:30:00.591Z,2.0
2023-01-15T09:31:00.812Z,2.0
2023-01-15T09:32:00.621Z,2.0
2023-01-15T09:33:00.604Z,2.0
2023-01-15T09:34:00.906Z,2.0
2023-01-15T09:35:00.634Z,2.0
2023-01-15T09:36:00.932Z,2.0
2023-01-15T09:37:00.579Z,2.0
2023-01-15T09:38:00.582Z,2.0
2023-01-15T09:39:01.189Z,2.0
2023-01-15T09:40:00.592Z,2.0
2023-01-15T09:41:06.312Z,2.0
2023-01-15T09:42:01.582Z,2.0
2023-01-15T09:43:05.060Z,2.0
2023-01-15T09:44:03.840Z,2.0
2023-01-15T09:45:01.597Z,2.0
2023-01-15T09:46:04.371Z,1.6
2023-01-15T09:47:10.539Z,1.6
2023-01-15T09:48:06.245Z,1.6
2023-01-15T09:49:10.528Z,1.6
2023-01-15T09:50:03.848Z,1.6
2023-01-15T09:51:10.544Z,1.6
2023-01-15T09:52:10.540Z,1.6
2023-01-15T09:53:10.546Z,1.6
2023-01-15T09:54:10.537Z,1.6
2023-01-15T09:55:04.510Z,1.6
2023-01-15T09:56:01.278Z,1.6
2023-01-15T09:57:01.291Z,1.6
2023-01-15T09:58:03.706Z,1.6
2023-01-15T09:59:04.486Z,1.6
2023-01-15T10:00:02.319Z,1.6
2023-01-15T10:01:00.727Z,1.6
2023-01-15T10:02:02.968Z,1.6
2023-01-15T10:03:04.400Z,1.6
2023-01-15T10:04:05.446Z,1.6
2023-01-15T10:05:08.820Z,1.6
2023-01-15T10:06:07.973Z,1.6
2023-01-15T10:07:10.517Z,1.6
2023-01-15T10:08:08.875Z,1.6
2023-01-15T10:09:05.569Z,1.6
2023-01-15T10:10:03.568Z,1.6
2023-01-15T10:11:03.505Z,1.6
2023-01-15T10:12:06.535Z,1.6
2023-01-15T10:13:07.495Z,1.6
2023-01-15T10:14:05.014Z,1.6
2023-01-15T10:15:03.873Z,1.6
2023-01-15T10:16:01.136Z,1.6
2023-01-15T10:17:00.619Z,1.6
2023-01-15T10:18:00.787Z,1.6
2023-01-15T10:19:01.080Z,1.6
2023-01-15T10:20:01.122Z,1.6
2023-01-15T10:21:10.517Z,1.6
2023-01-15T10:22:07.727Z,1.6
2023-01-15T10:23:08.400Z,1.6
2023-01-15T10:24:05.052Z,1.6
2023-01-15T10:25:02.467Z,1.6
2023-01-15T10:26:02.818Z,1.6
2023-01-15T10:27:04.247Z,1.6
2023-01-15T10:28:04.455Z,1.6
2023-01-15T10:29:03.641Z,1.6
2023-01-15T10:30:04.028Z,1.6
2023-01-15T10:31:05.502Z,1.6
2023-01-15T10:32:10.521Z,1.6
2023-01-15T10:33:09.079Z,1.6
2023-01-15T10:34:10.539Z,1.6
2023-01-15T10:35:01.626Z,1.6
2023-01-15T10:36:07.008Z,1.6
2023-01-15T10:37:03.842Z,1.6
2023-01-15T10:38:10.515Z,1.6
2023-01-15T10:39:03.878Z,1.6
2023-01-15T10:40:10.536Z,1.6
2023-01-15T10:41:03.827Z,1.6
2023-01-15T10:42:10.542Z,1.6
2023-01-15T10:43:09.433Z,1.6
2023-01-15T10:44:07.918Z,1.6
2023-01-15T10:45:01.602Z,1.6
2023-01-15T10:46:06.665Z,1.5
2023-01-15T10:47:01.913Z,1.5
2023-01-15T10:48:10.512Z,1.5
2023-01-15T10:49:03.202Z,1.5
2023-01-15T10:50:02.323Z,1.5
2023-01-15T10:51:02.269Z,1.5
2023-01-15T10:52:03.140Z,1.5
2023-01-15T10:53:05.009Z,1.5
2023-01-15T10:54:00.568Z,1.5
2023-01-15T10:55:00.557Z,1.5
2023-01-15T10:56:10.522Z,1.5
2023-01-15T10:57:03.886Z,1.5
2023-01-15T10:58:11.132Z,1.5
2023-01-15T10:59:00.565Z,1.5
2023-01-15T11:00:00.619Z,1.5
2023-01-15T11:01:05.317Z,1.5
2023-01-15T11:02:01.826Z,1.5
2023-01-15T11:03:02.359Z,1.5
2023-01-15T11:04:00.610Z,1.5
2023-01-15T11:05:01.164Z,1.4
2023-01-15T11:06:00.615Z,1.4
2023-01-15T11:07:00.582Z,1.4
2023-01-15T11:08:39.507Z,1.4
2023-01-15T11:09:09.751Z,1.4
2023-01-15T11:10:01.843Z,1.4
2023-01-15T11:11:10.545Z,1.4
2023-01-15T11:12:07.981Z,1.4
2023-01-15T11:13:10.517Z,1.4
2023-01-15T11:14:00.592Z,1.4
2023-01-15T11:15:00.629Z,1.4
2023-01-15T11:16:00.780Z,1.4
2023-01-15T11:17:01.074Z,1.4
2023-01-15T11:18:01.445Z,1.4
2023-01-15T11:19:01.834Z,1.4
2023-01-15T11:20:01.734Z,1.4
2023-01-15T11:21:01.574Z,1.4
2023-01-15T11:22:04.505Z,1.4
2023-01-15T11:23:10.525Z,1.4
2023-01-15T11:24:00.632Z,1.4
2023-01-15T11:25:00.778Z,1.4
2023-01-15T11:26:00.669Z,1.4
2023-01-15T11:27:00.676Z,1.4
2023-01-15T11:28:02.429Z,1.4
2023-01-15T11:29:10.516Z,1.4
2023-01-15T11:30:01.623Z,1.4
2023-01-15T11:31:01.318Z,1.4
2023-01-15T11:32:00.612Z,1.4
2023-01-15T11:33:01.433Z,1.4
2023-01-15T11:34:01.590Z,1.4
2023-01-15T11:35:10.517Z,1.4
2023-01-15T11:36:02.042Z,1.4
2023-01-15T11:37:01.563Z,1.4
2023-01-15T11:38:10.543Z,1.4
2023-01-15T11:39:00.580Z,1.4
2023-01-15T11:40:00.903Z,1.4
2023-01-15T11:41:01.335Z,1.4
2023-01-15T11:42:01.855Z,1.4
2023-01-15T11:43:00.634Z,1.4
2023-01-15T11:44:00.611Z,1.4
2023-01-15T11:45:00.804Z,1.8
2023-01-15T11:46:03.815Z,1.8
2023-01-15T11:47:02.581Z,1.8
2023-01-15T11:48:12.656Z,1.8
2023-01-15T11:49:07.604Z,1.8
2023-01-15T11:50:00.747Z,1.8
2023-01-15T11:51:05.390Z,1.8
2023-01-15T11:52:04.029Z,1.8
2023-01-15T11:53:00.852Z,1.8
2023-01-15T11:54:03.667Z,1.8
2023-01-15T11:55:00.682Z,1.8
2023-01-15T11:56:03.091Z,1.8
2023-01-15T11:57:01.131Z,1.8
2023-01-15T11:58:00.966Z,1.8
2023-01-15T11:59:01.954Z,1.8
2023-01-15T12:00:00.623Z,1.8
2023-01-15T12:01:00.703Z,1.8
2023-01-15T12:02:10.518Z,1.8
2023-01-15T12:03:04.672Z,1.8
2023-01-15T12:04:04.269Z,1.8
2023-01-15T12:05:01.115Z,1.4
2023-01-15T12:06:03.238Z,1.4
2023-01-15T12:07:03.048Z,1.4
2023-01-15T12:08:02.716Z,1.4
2023-01-15T12:09:04.688Z,1.4
2023-01-15T12:10:11.370Z,1.4
2023-01-15T12:11:17.474Z,1.4
2023-01-15T12:12:08.804Z,1.4
2023-01-15T12:13:06.973Z,1.4
2023-01-15T12:14:00.752Z,1.4
2023-01-15T12:15:00.705Z,1.4
2023-01-15T12:16:13.619Z,1.4
2023-01-15T12:17:11.547Z,1.4
2023-01-15T12:18:04.163Z,1.4
2023-01-15T12:19:08.077Z,1.4
2023-01-15T12:20:12.393Z,1.4
2023-01-15T12:21:10.663Z,1.4
2023-01-15T12:22:00.739Z,1.4
2023-01-15T12:23:10.681Z,1.4
2023-01-15T12:24:00.774Z,1.4
2023-01-15T12:25:00.777Z,1.4
2023-01-15T12:26:00.687Z,1.4
2023-01-15T12:27:10.589Z,1.4
2023-01-15T12:28:01.785Z,1.4
2023-01-15T12:29:00.611Z,1.4
2023-01-15T12:30:08.516Z,1.4
2023-01-15T12:31:03.950Z,1.4
2023-01-15T12:32:04.344Z,1.4
2023-01-15T12:33:00.739Z,1.4
2023-01-15T12:34:06.371Z,1.4
2023-01-15T12:35:05.455Z,1.4
2023-01-15T12:36:05.923Z,1.4
2023-01-15T12:37:05.961Z,1.4
2023-01-15T12:38:08.635Z,1.4
2023-01-15T12:39:03.233Z,1.4
2023-01-15T12:40:10.622Z,1.4
2023-01-15T12:41:03.378Z,1.4
2023-01-15T12:42:03.187Z,1.4
2023-01-15T12:43:00.873Z,1.4
2023-01-15T12:44:01.060Z,1.4
2023-01-15T12:45:05.332Z,1.5
2023-01-15T12:46:07.120Z,1.5
2023-01-15T12:47:02.212Z,1.5
2023-01-15T12:48:10.589Z,1.5
2023-01-15T12:49:01.762Z,1.5
2023-01-15T12:50:07.901Z,1.5
2023-01-15T12:51:02.391Z,1.5
2023-01-15T12:52:06.939Z,1.5
2023-01-15T12:53:10.709Z,1.5
2023-01-15T12:54:05.040Z,1.5
2023-01-15T12:55:06.750Z,1.5
2023-01-15T12:56:10.525Z,1.5
2023-01-15T12:57:04.624Z,1.5
2023-01-15T12:58:02.822Z,1.5
2023-01-15T12:59:05.217Z,1.5
2023-01-15T13:00:04.296Z,1.5
2023-01-15T13:01:04.784Z,1.5
2023-01-15T13:02:10.591Z,1.5
2023-01-15T13:03:10.553Z,1.5
2023-01-15T13:04:08.038Z,1.5
2023-01-15T13:05:10.562Z,1.4
2023-01-15T13:06:03.245Z,1.4
2023-01-15T13:07:10.535Z,1.4
2023-01-15T13:08:04.784Z,1.4
2023-01-15T13:09:07.733Z,1.4
2023-01-15T13:10:01.593Z,1.4
2023-01-15T13:11:00.634Z,1.4
2023-01-15T13:12:00.641Z,1.4
2023-01-15T13:13:10.558Z,1.4
2023-01-15T13:14:00.690Z,1.4
2023-01-15T13:15:01.393Z,1.4
2023-01-15T13:16:03.906Z,1.4
2023-01-15T13:17:01.605Z,1.4
2023-01-15T13:18:06.667Z,1.4
2023-01-15T13:19:10.531Z,1.4
2023-01-15T13:20:10.523Z,1.4
2023-01-15T13:21:05.855Z,1.4
2023-01-15T13:22:04.005Z,1.4
2023-01-15T13:23:01.620Z,1.4
2023-01-15T13:24:10.533Z,1.4
2023-01-15T13:25:00.601Z,1.6
2023-01-15T13:26:01.605Z,1.6
2023-01-15T13:27:10.541Z,1.6
2023-01-15T13:28:07.960Z,1.6
2023-01-15T13:29:10.530Z,1.6
2023-01-15T13:30:10.551Z,1.6
2023-01-15T13:31:06.209Z,1.6
2023-01-15T13:32:10.541Z,1.6
2023-01-15T13:33:10.559Z,1.6
2023-01-15T13:34:02.734Z,1.6
2023-01-15T13:35:08.181Z,1.6
2023-01-15T13:36:09.688Z,1.6
2023-01-15T13:37:10.540Z,1.6
2023-01-15T13:38:02.475Z,1.6
2023-01-15T13:39:02.234Z,1.6
2023-01-15T13:40:10.516Z,1.6
2023-01-15T13:41:00.768Z,1.6
2023-01-15T13:42:01.607Z,1.6
2023-01-15T13:43:01.664Z,1.6
2023-01-15T13:44:00.603Z,1.6
2023-01-15T13:45:04.955Z,1.6
2023-01-15T13:46:02.809Z,1.6